Time;durP1;ratioP1;P1;durP2;ratioP2;P2;SDS_P1;SDS_P2;PMS_P1;PMS_P2;Temp;Humidity;BMP_temperature;BMP_pressure;BME280_temperature;BME280_humidity;BME280_pressure;Samples;Min_cycle;Max_cycle;Signal;HPM_P1;HPM_P2
2023/09/11 00:00:50;;;;;;;31.33;15.82;;;23.30;99.90;;;;;;4980496;28;20089;-79
2023/09/11 00:03:16;;;;;;;26.05;15.13;;;23.30;99.90;;;;;;4987060;28;20022;-78
2023/09/11 00:05:42;;;;;;;32.15;14.30;;;23.20;99.90;;;;;;4983038;28;20097;-81
2023/09/11 00:08:08;;;;;;;31.55;15.73;;;23.20;99.90;;;;;;4982513;28;20046;-81
2023/09/11 00:10:35;;;;;;;25.00;14.98;;;23.20;99.90;;;;;;4984118;28;20085;-80
2023/09/11 00:13:03;;;;;;;36.13;15.38;;;23.30;99.90;;;;;;4982246;28;20026;-79
2023/09/11 00:15:32;;;;;;;27.48;14.40;;;23.30;99.90;;;;;;4980900;28;20571;-80
2023/09/11 00:17:58;;;;;;;33.17;15.93;;;23.30;99.90;;;;;;4984753;28;20023;-80
2023/09/11 00:20:23;;;;;;;35.90;15.07;;;23.30;99.90;;;;;;4984756;28;20043;-79
2023/09/11 00:22:49;;;;;;;29.27;15.10;;;23.50;99.90;;;;;;4984723;28;20031;-79
2023/09/11 00:25:15;;;;;;;30.10;13.88;;;23.40;99.90;;;;;;4980594;28;20452;-80
2023/09/11 00:27:40;;;;;;;26.95;14.32;;;23.40;99.90;;;;;;4980986;28;20614;-79
2023/09/11 00:30:06;;;;;;;23.17;14.90;;;23.40;99.90;;;;;;4981035;28;20483;-79
2023/09/11 00:32:32;;;;;;;33.08;13.90;;;23.50;99.90;;;;;;4977949;28;20022;-78
2023/09/11 00:34:58;;;;;;;26.15;13.27;;;23.50;99.90;;;;;;4982264;28;20023;-78
2023/09/11 00:37:23;;;;;;;23.13;14.20;;;23.50;99.90;;;;;;4984516;28;20020;-79
2023/09/11 00:39:49;;;;;;;26.00;14.13;;;23.50;99.90;;;;;;4984853;28;20038;-78
2023/09/11 00:42:15;;;;;;;27.52;15.23;;;23.40;99.90;;;;;;4981073;28;20398;-79
2023/09/11 00:44:40;;;;;;;28.55;13.75;;;23.50;99.90;;;;;;4981161;28;20031;-79
2023/09/11 00:47:06;;;;;;;28.55;15.40;;;23.40;99.90;;;;;;4980249;28;20027;-77
2023/09/11 00:49:32;;;;;;;27.48;14.27;;;23.30;99.90;;;;;;4981452;28;20023;-77
2023/09/11 00:51:59;;;;;;;39.13;15.40;;;23.20;99.90;;;;;;4979818;28;20103;-77
2023/09/11 00:54:26;;;;;;;38.67;15.57;;;23.10;99.90;;;;;;4983087;28;20102;-77
2023/09/11 00:56:51;;;;;;;31.08;14.95;;;23.00;99.90;;;;;;4976392;28;20030;-80
2023/09/11 00:59:20;;;;;;;34.08;15.45;;;23.00;99.90;;;;;;4985572;28;20112;-77
2023/09/11 01:01:46;;;;;;;29.17;14.73;;;23.00;99.90;;;;;;4981935;28;20456;-78
2023/09/11 01:04:12;;;;;;;26.88;15.30;;;23.00;99.90;;;;;;4981207;28;20062;-78
2023/09/11 01:06:40;;;;;;;28.25;15.30;;;22.90;99.90;;;;;;4982913;28;20023;-77
2023/09/11 01:09:06;;;;;;;42.22;15.50;;;22.80;99.90;;;;;;4984116;28;20049;-78
2023/09/11 01:11:34;;;;;;;35.10;15.98;;;22.80;99.90;;;;;;4980208;28;20467;-78
2023/09/11 01:14:00;;;;;;;31.63;15.20;;;22.80;99.90;;;;;;4981890;28;20026;-78
2023/09/11 01:16:35;;;;;;;35.92;16.92;;;22.70;99.90;;;;;;4983250;28;20027;-78
2023/09/11 01:19:17;;;;;;;27.05;16.13;;;22.70;99.90;;;;;;4983317;28;20023;-79
2023/09/11 01:21:45;;;;;;;36.47;17.05;;;22.70;99.90;;;;;;4985840;28;20031;-80
2023/09/11 01:24:50;;;;;;;33.25;16.20;;;22.70;99.90;;;;;;4980451;28;20105;-79
2023/09/11 01:27:59;;;;;;;35.58;16.95;;;22.70;99.90;;;;;;4981349;28;20513;-79
2023/09/11 01:30:28;;;;;;;34.85;16.70;;;22.60;99.90;;;;;;4961164;28;20486;-79
2023/09/11 01:32:54;;;;;;;42.13;16.48;;;22.50;99.90;;;;;;4982313;28;20025;-79
2023/09/11 01:35:20;;;;;;;28.40;16.23;;;22.50;99.90;;;;;;4981798;28;20029;-79
2023/09/11 01:37:46;;;;;;;33.28;17.70;;;22.50;99.90;;;;;;4979546;28;20398;-79
2023/09/11 01:40:11;;;;;;;35.45;15.82;;;22.50;99.90;;;;;;4982014;28;20030;-79
2023/09/11 01:42:46;;;;;;;23.10;15.20;;;22.60;99.90;;;;;;4984134;28;20100;-79
2023/09/11 01:45:14;;;;;;;32.45;17.33;;;22.50;99.90;;;;;;4981159;28;20015;-79
2023/09/11 01:47:42;;;;;;;36.45;16.55;;;22.50;99.90;;;;;;4980913;28;20034;-80
2023/09/11 01:50:10;;;;;;;31.85;17.10;;;22.40;99.90;;;;;;4981460;28;20030;-79
2023/09/11 01:52:38;;;;;;;38.88;15.43;;;22.40;99.90;;;;;;4984203;28;20027;-79
2023/09/11 01:55:05;;;;;;;38.53;17.25;;;22.30;99.90;;;;;;4980080;28;20030;-79
2023/09/11 01:57:30;;;;;;;36.15;16.23;;;22.30;99.90;;;;;;4980387;28;20023;-78
2023/09/11 01:59:56;;;;;;;36.88;16.85;;;22.30;99.90;;;;;;4980836;28;20085;-79
2023/09/11 02:02:22;;;;;;;32.97;17.92;;;22.20;99.90;;;;;;4995374;28;20410;-79
2023/09/11 02:04:47;;;;;;;31.50;16.92;;;22.20;99.90;;;;;;4981100;28;20037;-79
2023/09/11 02:07:13;;;;;;;30.02;17.42;;;22.20;99.90;;;;;;4979698;28;20031;-80
2023/09/11 02:09:41;;;;;;;26.35;15.73;;;22.20;99.90;;;;;;4986455;28;20110;-79
2023/09/11 02:12:06;;;;;;;29.23;16.67;;;22.30;99.90;;;;;;4982304;28;20058;-79
2023/09/11 02:14:32;;;;;;;29.75;15.48;;;22.30;99.90;;;;;;4978442;28;20066;-79
2023/09/11 02:17:02;;;;;;;38.67;16.35;;;22.40;99.90;;;;;;4985555;28;20039;-79
2023/09/11 02:19:29;;;;;;;35.13;15.65;;;22.50;99.90;;;;;;4985976;28;20093;-79
2023/09/11 02:21:55;;;;;;;33.53;16.90;;;22.50;99.90;;;;;;4979962;28;20031;-79
2023/09/11 02:24:20;;;;;;;33.50;17.45;;;22.40;99.90;;;;;;5112662;23;20046;-79
2023/09/11 02:26:46;;;;;;;28.73;17.67;;;22.40;99.90;;;;;;4989193;28;20046;-79
2023/09/11 02:29:12;;;;;;;32.90;17.60;;;22.30;99.90;;;;;;4983122;28;20022;-79
2023/09/11 02:31:37;;;;;;;28.58;16.38;;;22.20;99.90;;;;;;4985569;28;20030;-79
2023/09/11 02:34:03;;;;;;;44.63;16.15;;;22.20;99.90;;;;;;4988919;28;20529;-79
2023/09/11 02:36:28;;;;;;;36.10;18.60;;;22.20;99.90;;;;;;4988420;28;20073;-78
2023/09/11 02:38:54;;;;;;;38.40;17.05;;;22.10;99.90;;;;;;4987681;28;20033;-78
2023/09/11 02:41:19;;;;;;;31.58;17.42;;;22.00;99.90;;;;;;5000198;28;20038;-77
2023/09/11 02:43:45;;;;;;;39.78;18.10;;;21.90;99.90;;;;;;5007708;28;20019;-77
2023/09/11 02:46:11;;;;;;;29.77;17.63;;;22.00;99.90;;;;;;5010086;28;20046;-79
2023/09/11 02:48:44;;;;;;;35.28;17.48;;;22.00;99.90;;;;;;5001174;28;20022;-79
2023/09/11 02:51:10;;;;;;;34.83;17.65;;;22.10;99.90;;;;;;5002977;28;20038;-78
2023/09/11 02:53:35;;;;;;;31.50;17.00;;;22.10;99.90;;;;;;4987278;28;20375;-78
2023/09/11 02:56:01;;;;;;;36.92;16.83;;;22.10;99.90;;;;;;4986342;28;20059;-77
2023/09/11 02:58:27;;;;;;;36.25;18.23;;;22.10;99.90;;;;;;4987602;28;20018;-79
2023/09/11 03:00:52;;;;;;;35.20;18.17;;;22.10;99.90;;;;;;4987449;28;20026;-79
2023/09/11 03:03:18;;;;;;;37.17;17.35;;;22.00;99.90;;;;;;4986563;28;20030;-79
2023/09/11 03:05:44;;;;;;;38.95;18.98;;;22.00;99.90;;;;;;4987493;28;20022;-78
2023/09/11 03:08:11;;;;;;;38.20;18.27;;;22.00;99.90;;;;;;4987896;28;20029;-78
2023/09/11 03:10:37;;;;;;;30.85;19.08;;;22.00;99.90;;;;;;4986717;28;20026;-79
2023/09/11 03:13:03;;;;;;;43.28;19.05;;;21.90;99.90;;;;;;4987453;28;20022;-78
2023/09/11 03:15:30;;;;;;;40.90;19.35;;;21.90;99.90;;;;;;4986036;28;20023;-78
2023/09/11 03:17:56;;;;;;;34.47;19.02;;;21.90;99.90;;;;;;4985185;28;20033;-78
2023/09/11 03:20:22;;;;;;;39.95;19.60;;;21.90;99.90;;;;;;4988149;28;20030;-78
2023/09/11 03:22:50;;;;;;;42.55;20.60;;;21.80;99.90;;;;;;4985327;28;20050;-78
2023/09/11 03:25:16;;;;;;;44.38;20.08;;;21.80;99.90;;;;;;4986184;28;20038;-78
2023/09/11 03:27:42;;;;;;;41.63;20.42;;;21.70;99.90;;;;;;4985661;28;20155;-78
2023/09/11 03:30:08;;;;;;;38.08;19.80;;;21.70;99.90;;;;;;4984199;28;20030;-78
2023/09/11 03:32:33;;;;;;;37.33;19.98;;;21.70;99.90;;;;;;4988356;28;20030;-78
2023/09/11 03:34:59;;;;;;;48.67;20.17;;;21.70;99.90;;;;;;4985276;28;20490;-79
2023/09/11 03:37:25;;;;;;;41.85;20.45;;;21.60;99.90;;;;;;4987649;28;20022;-79
2023/09/11 03:39:50;;;;;;;29.80;19.60;;;21.60;99.90;;;;;;4985327;28;20029;-79
2023/09/11 03:42:16;;;;;;;39.40;19.40;;;21.60;99.90;;;;;;4986348;28;20044;-79
2023/09/11 03:44:42;;;;;;;36.95;20.63;;;21.70;99.90;;;;;;4991264;28;20467;-80
2023/09/11 03:47:07;;;;;;;39.45;19.92;;;21.60;99.90;;;;;;4987556;28;20033;-78
2023/09/11 03:49:33;;;;;;;39.65;19.27;;;21.70;99.90;;;;;;4990759;28;20018;-79
2023/09/11 03:51:58;;;;;;;39.55;18.77;;;21.70;99.90;;;;;;4989242;28;20415;-79
2023/09/11 03:54:24;;;;;;;40.40;18.15;;;21.70;99.90;;;;;;4988343;28;20034;-79
2023/09/11 03:56:50;;;;;;;35.13;18.77;;;21.70;99.90;;;;;;4982951;28;20406;-79
2023/09/11 03:59:15;;;;;;;34.60;17.65;;;21.70;99.90;;;;;;4988748;28;20129;-79
2023/09/11 04:01:41;;;;;;;37.92;19.63;;;21.70;99.90;;;;;;4986028;28;20041;-79
2023/09/11 04:04:09;;;;;;;32.42;18.92;;;21.70;99.90;;;;;;4989746;28;20983;-79
2023/09/11 04:06:34;;;;;;;37.30;18.45;;;21.60;99.90;;;;;;4988043;28;20667;-79
2023/09/11 04:09:00;;;;;;;34.08;18.23;;;21.60;99.90;;;;;;4988229;28;20130;-79
2023/09/11 04:11:28;;;;;;;37.33;19.15;;;21.50;99.90;;;;;;4988680;28;20097;-80
2023/09/11 04:13:54;;;;;;;31.15;19.55;;;21.50;99.90;;;;;;4985618;28;20018;-79
2023/09/11 04:16:21;;;;;;;32.33;17.88;;;21.40;99.90;;;;;;4987951;28;20038;-79
2023/09/11 04:18:47;;;;;;;33.33;18.42;;;21.30;99.90;;;;;;4985396;28;20057;-79
2023/09/11 04:21:12;;;;;;;28.63;18.00;;;21.20;99.90;;;;;;4987420;28;20097;-80
2023/09/11 04:23:38;;;;;;;29.25;17.20;;;21.20;99.90;;;;;;4987851;28;20037;-79
2023/09/11 04:26:04;;;;;;;32.65;18.55;;;21.20;99.90;;;;;;4987963;28;20501;-79
2023/09/11 04:28:29;;;;;;;37.25;17.73;;;21.20;99.90;;;;;;4987083;28;20924;-79
2023/09/11 04:30:55;;;;;;;32.30;17.17;;;21.20;99.90;;;;;;4988065;28;20113;-79
2023/09/11 04:33:21;;;;;;;37.53;18.85;;;21.20;99.90;;;;;;4988730;28;20018;-79
2023/09/11 04:35:46;;;;;;;35.03;17.70;;;21.20;99.90;;;;;;4985358;28;20081;-79
2023/09/11 04:38:12;;;;;;;28.15;17.38;;;21.10;99.90;;;;;;4987692;28;20060;-79
2023/09/11 04:40:40;;;;;;;32.20;17.70;;;21.10;99.90;;;;;;4987072;28;20032;-80
2023/09/11 04:43:05;;;;;;;31.25;17.77;;;21.10;99.90;;;;;;4987293;28;20042;-79
2023/09/11 04:45:31;;;;;;;28.27;17.13;;;21.10;99.90;;;;;;4988615;28;20025;-79
2023/09/11 04:47:57;;;;;;;26.73;15.90;;;21.10;99.90;;;;;;4987419;28;20025;-79
2023/09/11 04:50:22;;;;;;;36.83;16.30;;;21.20;99.90;;;;;;4988087;28;20023;-79
2023/09/11 04:52:48;;;;;;;31.38;16.38;;;21.20;99.90;;;;;;4984047;28;20065;-79
2023/09/11 04:55:16;;;;;;;33.65;17.27;;;21.30;99.90;;;;;;4984528;28;20097;-79
2023/09/11 04:57:41;;;;;;;36.72;17.33;;;21.20;99.90;;;;;;4988546;28;20117;-79
2023/09/11 05:00:10;;;;;;;30.50;16.70;;;21.20;99.90;;;;;;4984222;28;20105;-82
2023/09/11 05:02:36;;;;;;;32.05;16.40;;;21.20;99.90;;;;;;4987522;28;20044;-82
2023/09/11 05:05:03;;;;;;;30.25;15.48;;;21.20;99.90;;;;;;4986876;28;20065;-79
2023/09/11 05:07:29;;;;;;;32.22;16.42;;;21.20;99.90;;;;;;4986730;28;20088;-80
2023/09/11 05:09:55;;;;;;;42.28;15.82;;;21.20;99.90;;;;;;4986743;28;20061;-80
2023/09/11 05:12:21;;;;;;;28.67;15.77;;;21.20;99.90;;;;;;4984605;28;20062;-80
2023/09/11 05:14:46;;;;;;;30.92;15.85;;;21.20;99.90;;;;;;4987626;28;20086;-79
2023/09/11 05:17:12;;;;;;;29.08;15.95;;;21.20;99.90;;;;;;4974801;28;20061;-79
2023/09/11 05:19:38;;;;;;;43.78;16.35;;;21.20;99.90;;;;;;4985486;28;20593;-79
2023/09/11 05:22:04;;;;;;;28.92;15.77;;;21.30;99.90;;;;;;4985689;28;20077;-79
2023/09/11 05:24:33;;;;;;;37.80;16.02;;;21.30;99.90;;;;;;4985358;28;20022;-79
2023/09/11 05:26:58;;;;;;;33.42;15.57;;;21.40;99.90;;;;;;4985925;28;20030;-79
2023/09/11 05:29:24;;;;;;;35.67;16.60;;;21.50;99.90;;;;;;4984992;28;20359;-80
2023/09/11 05:31:50;;;;;;;29.23;15.55;;;21.50;99.90;;;;;;4988057;28;20070;-80
2023/09/11 05:34:15;;;;;;;32.08;16.60;;;21.60;99.90;;;;;;4990434;28;20033;-81
2023/09/11 05:36:43;;;;;;;28.27;15.50;;;21.60;99.90;;;;;;4987644;28;20866;-80
2023/09/11 05:39:11;;;;;;;40.97;15.63;;;21.50;99.90;;;;;;4984349;28;20110;-79
2023/09/11 05:41:36;;;;;;;32.10;15.85;;;21.50;99.90;;;;;;4986885;28;20580;-79
2023/09/11 05:44:03;;;;;;;27.08;15.80;;;21.50;99.90;;;;;;4985556;28;20026;-79
2023/09/11 05:46:29;;;;;;;37.00;15.70;;;21.50;99.90;;;;;;4985973;28;20034;-79
2023/09/11 05:48:57;;;;;;;33.72;16.55;;;21.50;99.90;;;;;;4979954;28;20077;-79
2023/09/11 05:51:23;;;;;;;28.70;16.00;;;21.50;99.90;;;;;;4979216;28;20545;-82
2023/09/11 05:53:48;;;;;;;27.20;16.27;;;21.40;99.90;;;;;;4980912;28;20030;-83
2023/09/11 05:56:14;;;;;;;30.83;15.15;;;21.50;99.90;;;;;;4982478;28;20030;-81
2023/09/11 05:58:41;;;;;;;29.02;14.23;;;21.50;99.90;;;;;;4983097;28;20462;-85
2023/09/11 06:01:07;;;;;;;29.33;15.82;;;21.50;99.90;;;;;;4984532;28;20034;-86
2023/09/11 06:03:35;;;;;;;32.88;15.13;;;21.50;99.90;;;;;;4980300;28;20372;-85
2023/09/11 06:06:01;;;;;;;28.05;14.30;;;21.60;99.90;;;;;;4981069;28;20526;-79
2023/09/11 06:08:26;;;;;;;28.73;14.52;;;21.60;99.90;;;;;;4982160;28;20030;-79
2023/09/11 06:10:52;;;;;;;36.60;15.15;;;21.60;99.90;;;;;;4982608;28;20818;-79
2023/09/11 06:13:20;;;;;;;33.63;13.55;;;21.60;99.90;;;;;;4981885;28;20406;-79
2023/09/11 06:15:49;;;;;;;37.60;15.63;;;21.70;99.90;;;;;;4979715;28;20317;-85
2023/09/11 06:18:15;;;;;;;33.42;15.02;;;21.70;99.90;;;;;;4979828;28;20070;-80
2023/09/11 06:20:42;;;;;;;27.38;14.00;;;21.80;99.90;;;;;;4981964;28;20045;-81
2023/09/11 06:23:10;;;;;;;32.90;14.30;;;21.90;99.90;;;;;;4978345;28;20022;-80
2023/09/11 06:25:38;;;;;;;32.58;15.07;;;21.90;99.90;;;;;;4978874;28;20117;-80
2023/09/11 06:28:04;;;;;;;32.05;14.95;;;22.00;99.90;;;;;;4978805;28;20105;-80
2023/09/11 06:30:32;;;;;;;30.63;15.27;;;22.00;99.90;;;;;;4981667;28;20475;-81
2023/09/11 06:32:58;;;;;;;32.03;14.77;;;22.10;99.90;;;;;;4980499;28;20333;-83
2023/09/11 06:35:23;;;;;;;39.88;15.73;;;22.20;99.90;;;;;;4979343;28;20513;-80
2023/09/11 06:37:49;;;;;;;31.10;16.75;;;22.30;99.90;;;;;;4983395;28;20038;-81
2023/09/11 06:40:15;;;;;;;29.33;15.43;;;22.40;99.90;;;;;;4982836;28;20391;-81
2023/09/11 06:42:41;;;;;;;41.28;15.55;;;22.40;99.90;;;;;;4982687;28;20084;-80
2023/09/11 06:45:07;;;;;;;37.33;15.77;;;22.40;99.90;;;;;;4985268;28;22193;-81
2023/09/11 06:47:34;;;;;;;36.63;16.05;;;22.50;99.90;;;;;;4984757;28;20030;-80
2023/09/11 06:50:00;;;;;;;49.47;19.88;;;22.60;99.90;;;;;;4981756;28;20150;-83
2023/09/11 06:52:28;;;;;;;30.77;16.00;;;22.70;99.90;;;;;;4979926;28;20458;-81
2023/09/11 06:54:54;;;;;;;44.45;17.58;;;22.80;99.90;;;;;;4971609;28;20053;-83
2023/09/11 06:57:20;;;;;;;36.60;15.10;;;22.80;99.90;;;;;;4980961;28;20026;-81
2023/09/11 06:59:48;;;;;;;37.38;16.65;;;22.90;99.90;;;;;;4984287;28;20038;-87
2023/09/11 07:02:16;;;;;;;30.60;14.95;;;23.00;99.90;;;;;;4989998;28;20018;-89
2023/09/11 07:04:44;;;;;;;33.17;14.77;;;23.10;99.90;;;;;;5005554;28;20107;-86
2023/09/11 07:07:10;;;;;;;33.50;15.05;;;23.20;99.90;;;;;;5005325;28;20022;-83
2023/09/11 07:09:35;;;;;;;28.98;13.32;;;23.20;99.90;;;;;;5005956;28;20014;-83
2023/09/11 07:12:01;;;;;;;37.60;14.23;;;23.30;99.90;;;;;;5008302;28;20010;-82
2023/09/11 07:14:27;;;;;;;29.17;14.25;;;23.40;99.90;;;;;;5005458;28;20102;-84
2023/09/11 07:17:00;;;;;;;258.42;117.72;;;23.40;99.90;;;;;;5006981;28;20034;-83
2023/09/11 07:19:25;;;;;;;62.55;26.08;;;23.60;99.90;;;;;;5003983;28;20088;-86
2023/09/11 07:21:51;;;;;;;32.20;15.18;;;23.60;99.90;;;;;;4994502;28;20038;-86
2023/09/11 07:24:19;;;;;;;31.52;13.80;;;23.70;99.90;;;;;;4995429;28;20155;-85
2023/09/11 07:26:45;;;;;;;38.90;13.07;;;23.70;99.90;;;;;;4993547;28;20035;-84
2023/09/11 07:29:10;;;;;;;30.55;12.82;;;23.80;99.90;;;;;;4989885;28;20356;-84
2023/09/11 07:31:36;;;;;;;27.17;12.40;;;23.80;99.90;;;;;;4990995;28;20033;-83
2023/09/11 07:34:02;;;;;;;25.08;13.45;;;23.90;99.90;;;;;;4983689;28;20362;-83
2023/09/11 07:36:29;;;;;;;27.25;13.05;;;24.00;99.90;;;;;;4988133;28;20021;-82
2023/09/11 07:38:58;;;;;;;30.05;13.35;;;24.00;99.90;;;;;;4982273;28;20027;-82
2023/09/11 07:41:24;;;;;;;34.20;12.55;;;24.10;99.90;;;;;;4982184;28;20046;-84
2023/09/11 07:43:50;;;;;;;36.25;12.77;;;24.10;99.90;;;;;;4985489;28;20030;-90
2023/09/11 07:46:22;;;;;;;32.58;13.77;;;24.20;99.90;;;;;;4983407;28;20030;-82
2023/09/11 07:48:48;;;;;;;;;;;24.30;99.90;;;;;;4992402;28;20093;-90
2023/09/11 07:51:17;;;;;;;29.52;12.07;;;24.30;99.90;;;;;;4991559;28;19968;-91
2023/09/11 07:53:45;;;;;;;26.00;12.52;;;24.40;99.90;;;;;;4989720;28;20027;-78
2023/09/11 07:56:11;;;;;;;27.98;12.73;;;24.50;99.90;;;;;;4985011;28;20759;-82
2023/09/11 07:58:37;;;;;;;21.20;12.30;;;24.50;99.90;;;;;;4983357;28;20032;-81
2023/09/11 08:01:04;;;;;;;32.95;12.95;;;24.50;99.90;;;;;;4984145;28;20100;-83
2023/09/11 08:03:35;;;;;;;27.98;12.98;;;24.50;99.90;;;;;;4982898;28;20033;-81
2023/09/11 08:06:04;;;;;;;34.10;13.47;;;24.60;99.90;;;;;;4983514;28;20043;-82
2023/09/11 08:08:39;;;;;;;18.95;10.57;;;24.70;99.90;;;;;;4982314;28;20471;-86
2023/09/11 08:11:21;;;;;;;25.17;11.75;;;24.80;99.90;;;;;;4983496;28;20030;-80
2023/09/11 08:13:49;;;;;;;28.73;13.25;;;24.90;99.90;;;;;;4985241;28;20026;-82
2023/09/11 08:16:19;;;;;;;31.90;12.02;;;24.80;99.90;;;;;;4983267;28;20058;-80
2023/09/11 08:18:45;;;;;;;27.70;11.35;;;24.80;99.90;;;;;;4983491;28;20125;-83
2023/09/11 08:21:13;;;;;;;24.00;11.82;;;24.90;99.90;;;;;;4986503;28;20136;-80
2023/09/11 08:23:51;;;;;;;;;;;;;;;;;;;;;
2023/09/11 08:26:27;;;;;;;;;;;;;;;;;;;;;
2023/09/11 08:28:56;;;;;;;28.92;11.52;;;25.10;99.90;;;;;;4986017;28;20409;-82
2023/09/11 08:31:27;;;;;;;25.35;11.40;;;25.10;99.90;;;;;;5000936;28;20045;-85
2023/09/11 08:33:54;;;;;;;19.17;10.68;;;25.00;99.90;;;;;;4984347;28;20034;-80
2023/09/11 08:36:20;;;;;;;27.55;10.43;;;25.20;99.90;;;;;;4982884;28;20034;-81
2023/09/11 08:38:47;;;;;;;26.02;11.40;;;25.10;99.90;;;;;;4984307;28;20034;-78
2023/09/11 08:41:17;;;;;;;24.30;10.50;;;25.10;99.90;;;;;;4984659;28;20035;-92
2023/09/11 08:43:44;;;;;;;26.60;11.45;;;25.40;99.90;;;;;;4984700;28;20086;-80
2023/09/11 08:46:14;;;;;;;36.97;11.15;;;25.50;99.90;;;;;;4985725;28;20034;-83
2023/09/11 08:48:46;;;;;;;22.75;9.85;;;25.60;99.90;;;;;;4982007;28;20065;-82
2023/09/11 08:51:20;;;;;;;20.98;10.70;;;25.70;99.90;;;;;;4984787;28;20030;-82
2023/09/11 08:53:52;;;;;;;14.80;8.98;;;25.80;99.90;;;;;;4978072;28;20489;-88
2023/09/11 08:56:20;;;;;;;24.33;9.35;;;26.20;99.40;;;;;;4983142;28;20064;-82
2023/09/11 08:58:50;;;;;;;21.95;9.25;;;26.20;98.90;;;;;;4982710;28;20034;-88
2023/09/11 09:01:20;;;;;;;25.88;10.18;;;26.20;99.10;;;;;;4988980;28;20054;-92
2023/09/11 09:03:57;;;;;;;;;;;;;;;;;;;;;
2023/09/11 09:06:29;;;;;;;19.60;9.75;;;27.00;97.20;;;;;;4994105;28;20433;-87
2023/09/11 09:08:59;;;;;;;17.92;9.25;;;27.40;96.20;;;;;;5030486;23;20045;-93
2023/09/11 09:11:26;;;;;;;19.95;8.52;;;27.70;95.30;;;;;;5011864;28;20498;-85
2023/09/11 09:13:52;;;;;;;20.77;9.30;;;28.10;94.60;;;;;;5010410;28;20115;-86
2023/09/11 09:16:17;;;;;;;21.10;11.13;;;28.40;93.80;;;;;;5008851;28;20486;-87
2023/09/11 09:18:49;;;;;;;24.77;9.57;;;28.60;92.80;;;;;;5007150;28;20080;-86
2023/09/11 09:21:15;;;;;;;16.42;9.32;;;28.70;92.60;;;;;;5025562;28;20135;-89
2023/09/11 09:23:43;;;;;;;19.88;9.27;;;28.80;92.30;;;;;;5022014;28;20053;-84
2023/09/11 09:26:10;;;;;;;18.17;9.85;;;28.70;91.80;;;;;;5013836;28;20088;-88
2023/09/11 09:28:46;;;;;;;27.25;8.68;;;29.00;91.40;;;;;;5006962;28;20033;-89
2023/09/11 09:31:22;;;;;;;13.10;8.52;;;29.00;90.20;;;;;;5007039;28;20730;-83
2023/09/11 09:33:55;;;;;;;14.70;8.60;;;29.00;88.50;;;;;;5004105;28;20030;-85
2023/09/11 09:36:22;;;;;;;12.95;7.68;;;29.00;88.60;;;;;;5004426;28;20392;-84
2023/09/11 09:38:57;;;;;;;12.55;8.38;;;29.20;87.00;;;;;;5003535;28;20148;-88
2023/09/11 09:41:23;;;;;;;14.82;9.15;;;29.00;87.00;;;;;;5004551;28;20048;-88
2023/09/11 09:43:53;;;;;;;16.77;8.80;;;29.00;89.00;;;;;;5004276;28;20588;-81
2023/09/11 09:46:21;;;;;;;16.40;8.80;;;29.10;88.00;;;;;;4999955;28;20801;-83
2023/09/11 09:48:46;;;;;;;20.05;9.30;;;29.30;87.10;;;;;;5000336;28;20029;-81
2023/09/11 09:51:13;;;;;;;22.33;10.32;;;29.50;86.90;;;;;;5001996;28;20033;-80
2023/09/11 09:53:41;;;;;;;19.17;9.60;;;29.40;86.70;;;;;;5002717;28;20030;-80
2023/09/11 09:56:08;;;;;;;18.92;9.88;;;29.40;86.60;;;;;;4992307;28;20042;-84
2023/09/11 09:58:38;;;;;;;12.77;9.05;;;29.50;85.40;;;;;;5001813;28;20033;-81
2023/09/11 10:01:06;;;;;;;25.55;10.63;;;29.60;85.50;;;;;;5003616;28;20022;-79
2023/09/11 10:03:47;;;;;;;27.63;15.35;;;29.70;85.80;;;;;;5001705;28;20152;-78
2023/09/11 10:06:23;;;;;;;19.08;11.00;;;29.50;85.00;;;;;;4996366;28;20466;-79
2023/09/11 10:09:09;;;;;;;14.65;10.95;;;29.60;85.70;;;;;;4999368;28;20352;-76
2023/09/11 10:11:36;;;;;;;17.20;10.27;;;29.80;85.90;;;;;;4993494;28;20054;-83
2023/09/11 10:14:04;;;;;;;21.23;10.95;;;29.90;84.40;;;;;;4999306;28;20084;-80
2023/09/11 10:16:30;;;;;;;23.20;9.98;;;29.80;84.60;;;;;;5002616;28;20441;-83
2023/09/11 10:18:58;;;;;;;14.50;10.75;;;30.00;85.80;;;;;;5005654;28;20030;-88
2023/09/11 10:21:25;;;;;;;17.10;10.52;;;30.10;84.20;;;;;;4999549;28;20052;-83
2023/09/11 10:23:52;;;;;;;21.55;10.60;;;30.40;82.80;;;;;;5002630;28;20089;-84
2023/09/11 10:26:54;;;;;;;23.60;10.00;;;30.50;83.20;;;;;;5001925;28;20026;-84
2023/09/11 10:29:38;;;;;;;37.33;18.80;;;30.80;82.60;;;;;;5120000;23;20046;-86
2023/09/11 10:32:08;;;;;;;23.90;10.32;;;30.80;81.30;;;;;;4996411;28;20046;-88
2023/09/11 10:34:56;;;;;;;16.70;10.98;;;30.90;80.80;;;;;;4993688;28;20105;-93
2023/09/11 10:37:21;;;;;;;18.80;10.80;;;31.00;80.50;;;;;;4991949;28;20460;-87
2023/09/11 10:39:50;;;;;;;20.60;10.77;;;30.50;82.20;;;;;;4994122;28;20027;-90
2023/09/11 10:42:18;;;;;;;18.75;10.88;;;30.50;81.90;;;;;;4995227;28;20114;-85
2023/09/11 10:44:43;;;;;;;21.20;10.93;;;30.80;82.50;;;;;;4990873;28;20030;-92
2023/09/11 10:47:16;;;;;;;16.13;11.02;;;30.90;80.80;;;;;;4996696;28;20026;-96
2023/09/11 10:49:42;;;;;;;19.90;11.93;;;30.90;80.40;;;;;;4991038;28;20034;-88
2023/09/11 10:52:11;;;;;;;14.85;11.63;;;30.50;82.30;;;;;;4988263;28;20501;-85
2023/09/11 10:54:37;;;;;;;17.38;11.68;;;30.70;80.50;;;;;;4990557;28;20026;-84
2023/09/11 10:57:04;;;;;;;22.63;11.93;;;30.70;81.10;;;;;;4992245;28;20584;-86
2023/09/11 10:59:31;;;;;;;12.27;11.02;;;30.80;80.70;;;;;;4994938;28;20027;-88
2023/09/11 11:01:58;;;;;;;21.35;10.98;;;31.00;80.30;;;;;;4989850;28;20180;-94
2023/09/11 11:04:24;;;;;;;18.90;10.82;;;31.40;79.80;;;;;;4984522;28;20054;-82
2023/09/11 11:06:57;;;;;;;39.20;19.92;;;31.70;78.80;;;;;;4993153;28;20099;-86
2023/09/11 11:09:30;;;;;;;27.17;10.80;;;31.80;78.00;;;;;;4992217;28;20022;-90
2023/09/11 11:11:59;;;;;;;18.55;10.07;;;31.50;77.40;;;;;;4987484;28;20026;-82
2023/09/11 11:14:25;;;;;;;12.75;10.85;;;31.30;78.50;;;;;;4989282;28;20089;-80
2023/09/11 11:17:10;;;;;;;18.30;9.70;;;31.50;77.70;;;;;;4991487;28;20136;-81
2023/09/11 11:19:51;;;;;;;16.35;10.38;;;31.70;77.70;;;;;;4986997;28;20038;-83
2023/09/11 11:22:33;;;;;;;16.52;10.18;;;32.00;76.80;;;;;;4983998;28;20745;-83
2023/09/11 11:25:03;;;;;;;17.48;10.43;;;31.90;76.50;;;;;;4987045;28;20112;-79
2023/09/11 11:27:28;;;;;;;24.38;11.63;;;31.20;77.60;;;;;;4987200;28;20185;-79
2023/09/11 11:29:56;;;;;;;18.98;9.20;;;31.30;78.60;;;;;;4986342;28;20655;-78
2023/09/11 11:32:25;;;;;;;16.92;9.75;;;31.60;76.30;;;;;;4986528;28;20505;-78
2023/09/11 11:34:51;;;;;;;13.65;10.25;;;31.80;74.80;;;;;;4987245;28;20041;-78
2023/09/11 11:37:20;;;;;;;20.70;9.95;;;31.90;74.90;;;;;;4987408;28;20077;-78
2023/09/11 11:39:46;;;;;;;14.18;9.68;;;31.50;76.30;;;;;;4977616;28;20025;-79
2023/09/11 11:42:13;;;;;;;18.38;8.90;;;31.20;77.00;;;;;;4988495;28;20120;-77
2023/09/11 11:44:40;;;;;;;20.20;10.13;;;31.50;76.70;;;;;;4986509;28;20037;-77
2023/09/11 11:47:09;;;;;;;98.03;48.80;;;31.70;77.10;;;;;;4990516;28;20022;-78
2023/09/11 11:49:41;;;;;;;16.98;10.55;;;31.40;75.60;;;;;;4986334;28;20050;-79
2023/09/11 11:52:10;;;;;;;21.52;10.82;;;31.40;76.50;;;;;;4975208;28;20407;-85
2023/09/11 11:54:36;;;;;;;19.27;10.98;;;31.10;77.50;;;;;;4998384;28;20336;-78
2023/09/11 11:57:05;;;;;;;20.50;10.15;;;31.20;79.00;;;;;;4989662;28;20070;-80
2023/09/11 11:59:36;;;;;;;21.05;10.07;;;31.30;78.30;;;;;;4986825;28;20030;-79
2023/09/11 12:02:03;;;;;;;14.93;9.27;;;31.40;77.80;;;;;;5001566;28;20022;-78
2023/09/11 12:04:29;;;;;;;14.65;10.40;;;31.60;76.50;;;;;;4996142;28;20022;-78
2023/09/11 12:06:57;;;;;;;18.05;10.15;;;31.80;75.90;;;;;;5009522;28;20025;-84
2023/09/11 12:09:24;;;;;;;13.38;10.38;;;32.00;77.40;;;;;;4994469;28;20166;-81
2023/09/11 12:11:50;;;;;;;12.88;10.10;;;32.30;73.90;;;;;;4991324;28;20034;-82
2023/09/11 12:14:17;;;;;;;20.98;9.45;;;32.20;75.10;;;;;;4989015;28;20050;-77
2023/09/11 12:16:48;;;;;;;20.27;10.27;;;32.50;74.20;;;;;;4987987;28;20093;-81
2023/09/11 12:19:18;;;;;;;358.70;203.27;;;32.60;73.90;;;;;;4987219;28;20321;-85
2023/09/11 12:21:43;;;;;;;14.90;10.98;;;32.80;74.40;;;;;;4986658;28;20158;-79
2023/09/11 12:24:10;;;;;;;20.70;13.57;;;32.90;75.20;;;;;;4988922;28;20087;-79
2023/09/11 12:26:37;;;;;;;16.92;12.48;;;32.70;73.40;;;;;;4985316;28;20035;-78
2023/09/11 12:29:06;;;;;;;16.05;13.25;;;32.70;73.80;;;;;;4986712;28;20447;-80
2023/09/11 12:31:31;;;;;;;20.73;11.85;;;32.80;74.80;;;;;;4982924;28;20022;-83
2023/09/11 12:34:00;;;;;;;17.95;13.50;;;33.00;74.70;;;;;;4989529;28;20081;-82